Time;durP1;ratioP1;P1;durP2;ratioP2;P2;SDS_P1;SDS_P2;PMS_P1;PMS_P2;Temp;Humidity;BMP_temperature;BMP_pressure;BME280_temperature;BME280_humidity;BME280_pressure;Samples;Min_cycle;Max_cycle;Signal;HPM_P1;HPM_P2
2022/12/16 00:00:23;;;;;;;;;2.75;1.75;;;;;20.93;35.39;100936.59;5033583;28;46179;-71
2022/12/16 00:02:49;;;;;;;;;3.75;3.75;;;;;20.91;35.24;100948.34;5042328;28;45550;-71
2022/12/16 00:05:15;;;;;;;;;1.25;1.00;;;;;20.91;35.13;100949.16;5053791;28;45404;-71
2022/12/16 00:07:40;;;;;;;;;4.00;4.00;;;;;20.91;35.17;100951.00;5053662;28;45305;-71
2022/12/16 00:10:07;;;;;;;;;3.25;3.00;;;;;20.91;34.97;100949.16;5053402;28;45274;-71
2022/12/16 00:12:32;;;;;;;;;7.00;3.00;;;;;20.90;34.97;100941.38;5053214;28;45399;-71
2022/12/16 00:14:57;;;;;;;;;3.00;3.00;;;;;20.89;35.17;100947.69;5053595;28;45307;-71
2022/12/16 00:17:23;;;;;;;;;4.50;3.25;;;;;20.89;35.17;100945.88;5053598;28;45363;-71
2022/12/16 00:19:48;;;;;;;;;3.75;2.75;;;;;20.73;35.17;100926.41;5035366;28;48175;-71
2022/12/16 00:22:14;;;;;;;;;4.00;2.25;;;;;20.88;35.22;100948.69;5053306;28;45353;-71
2022/12/16 00:24:39;;;;;;;;;4.25;3.00;;;;;20.87;35.02;100947.03;5053639;28;45399;-71
2022/12/16 00:27:04;;;;;;;;;3.25;2.00;;;;;20.87;34.61;100947.03;5052991;28;45494;-71
2022/12/16 00:29:29;;;;;;;;;2.75;2.75;;;;;20.85;35.08;100945.38;5053200;28;45961;-71
2022/12/16 00:31:55;;;;;;;;;5.00;4.00;;;;;20.70;35.25;100924.09;5053327;28;45365;-71
2022/12/16 00:34:20;;;;;;;;;4.00;4.00;;;;;20.84;34.86;100946.38;5053428;28;45356;-71
2022/12/16 00:36:45;;;;;;;;;3.00;3.00;;;;;20.83;34.62;100947.38;5053306;28;45264;-72
2022/12/16 00:39:11;;;;;;;;;5.75;4.00;;;;;20.81;34.80;100948.53;5053192;28;45948;-71
2022/12/16 00:41:36;;;;;;;;;3.50;2.75;;;;;20.83;34.31;100952.66;5052840;28;45439;-71
2022/12/16 00:44:02;;;;;;;;;3.25;3.25;;;;;20.83;34.62;100944.72;5052699;28;45267;-71
2022/12/16 00:46:27;;;;;;;;;5.00;3.50;;;;;20.81;34.59;100941.44;5053319;28;45379;-71
2022/12/16 00:48:53;;;;;;;;;6.75;4.25;;;;;20.81;34.48;100951.19;5052866;28;46353;-71
2022/12/16 00:51:18;;;;;;;;;3.00;3.00;;;;;20.81;34.64;100948.53;5053010;28;45300;-71
2022/12/16 00:53:44;;;;;;;;;4.00;4.00;;;;;20.79;34.51;100951.34;5051136;28;45372;-71
2022/12/16 00:56:13;;;;;;;;;4.00;4.00;;;;;20.82;34.48;100955.47;5014688;28;45517;-71
2022/12/16 00:58:39;;;;;;;;;3.00;3.00;;;;;20.76;34.84;100948.22;5032920;28;45299;-71
2022/12/16 01:01:06;;;;;;;;;4.75;3.00;;;;;20.80;34.58;100960.94;5032499;28;45373;-71
2022/12/16 01:03:33;;;;;;;;;5.00;4.00;;;;;20.80;34.86;100963.56;5047749;28;45292;-71
2022/12/16 01:05:58;;;;;;;;;5.75;5.50;;;;;20.80;34.42;100960.94;5053005;28;45278;-71
2022/12/16 01:08:24;;;;;;;;;3.25;3.25;;;;;20.79;34.49;100963.75;5052510;28;45367;-71
2022/12/16 01:10:54;;;;;;;;;7.50;5.00;;;;;20.79;34.75;100963.75;5052370;28;45406;-71
2022/12/16 01:13:21;;;;;;;;;4.25;3.75;;;;;20.74;34.69;100962.44;5052735;28;45263;-71
2022/12/16 01:15:47;;;;;;;;;7.25;4.75;;;;;20.77;34.86;100971.00;5052619;28;45303;-71
2022/12/16 01:18:13;;;;;;;;;4.50;3.50;;;;;20.77;34.82;100969.19;5052532;28;45414;-71
2022/12/16 01:20:39;;;;;;;;;3.50;3.00;;;;;20.77;34.30;100969.19;5052534;28;45328;-71
2022/12/16 01:23:04;;;;;;;;;2.50;2.25;;;;;20.76;34.47;100961.44;5052624;28;45442;-71
2022/12/16 01:25:30;;;;;;;;;2.00;0.00;;;;;20.74;34.56;100967.72;5052318;28;45329;-71
2022/12/16 01:27:55;;;;;;;;;4.25;4.25;;;;;20.75;34.71;100976.47;5052468;28;46080;-71
2022/12/16 01:30:21;;;;;;;;;5.50;3.75;;;;;20.75;34.36;100979.13;5052291;28;45432;-71
2022/12/16 01:32:46;;;;;;;;;4.00;4.00;;;;;20.73;34.57;100978.47;5052526;28;45372;-71
2022/12/16 01:35:12;;;;;;;;;3.00;3.00;;;;;20.73;34.12;100983.75;5052569;28;45315;-71
2022/12/16 01:37:37;;;;;;;;;3.00;3.00;;;;;20.72;34.45;100982.09;5052265;28;45454;-71
2022/12/16 01:40:03;;;;;;;;;4.00;4.00;;;;;20.62;34.62;100977.00;5051919;28;45271;-71
2022/12/16 01:42:31;;;;;;;;;3.75;3.25;;;;;20.72;34.76;100995.31;5052469;28;45350;-71
2022/12/16 01:45:28;;;;;;;;;4.00;4.00;;;;;20.71;34.41;100996.31;5052174;28;45490;-71
2022/12/16 01:47:57;;;;;;;;;4.75;4.25;;;;;20.71;34.37;101006.91;5051929;28;47006;-71
2022/12/16 01:50:24;;;;;;;;;4.00;3.00;;;;;20.71;34.69;101014.84;5051981;28;45477;-71
2022/12/16 01:52:55;;;;;;;;;7.25;4.00;;;;;20.70;34.50;101018.47;5051851;28;45384;-71
2022/12/16 01:55:25;;;;;;;;;3.25;2.25;;;;;20.60;34.38;101011.53;5036785;28;45391;-71
2022/12/16 01:57:57;;;;;;;;;5.50;5.00;;;;;20.68;34.17;101020.44;5035023;28;46116;-71
2022/12/16 02:00:23;;;;;;;;;4.00;4.00;;;;;20.68;34.19;101023.94;5034996;28;45279;-71
2022/12/16 02:02:50;;;;;;;;;5.25;4.00;;;;;20.59;34.77;101012.53;5043853;28;45345;-71
2022/12/16 02:05:22;;;;;;;;;5.50;5.00;;;;;20.58;34.31;101018.78;5055266;28;45304;-71
2022/12/16 02:08:01;;;;;;;;;6.25;5.25;;;;;20.61;34.21;101029.03;5054668;28;47026;-71
2022/12/16 02:11:16;;;;;;;;;5.75;5.75;;;;;20.68;34.34;101036.31;5054908;28;45253;-71
2022/12/16 02:14:00;;;;;;;;;6.00;5.00;;;;;20.68;33.98;101038.97;5046890;28;45775;-71
2022/12/16 02:16:53;;;;;;;;;5.25;5.25;;;;;20.67;34.24;101038.13;5055002;28;45509;-71
2022/12/16 02:19:40;;;;;;;;;7.75;4.00;;;;;20.67;34.05;101038.13;5054912;28;45385;-71
2022/12/16 02:22:23;;;;;;;;;4.00;4.00;;;;;20.67;34.13;101038.13;5054491;27;45395;-71
2022/12/16 02:25:19;;;;;;;;;5.00;5.00;;;;;20.67;34.21;101042.56;5054912;28;45436;-71
2022/12/16 02:27:56;;;;;;;;;6.00;5.00;;;;;20.67;34.20;101047.88;5054880;28;45275;-71
2022/12/16 02:30:40;;;;;;;;;6.00;6.00;;;;;20.66;33.90;101044.41;5054613;28;45281;-71
2022/12/16 02:33:21;;;;;;;;;6.25;5.00;;;;;20.67;34.00;101047.88;5054680;28;45291;-71
2022/12/16 02:35:52;;;;;;;;;6.00;5.00;;;;;20.67;34.00;101054.00;5054499;28;45328;-70
2022/12/16 02:38:26;;;;;;;;;6.25;6.00;;;;;20.66;34.16;101049.69;5054838;28;45669;-71
2022/12/16 02:41:00;;;;;;;;;4.50;4.50;;;;;20.65;33.75;101039.28;5054578;28;46126;-71
2022/12/16 02:43:41;;;;;;;;;6.00;6.00;;;;;20.66;34.26;101049.69;5054671;28;45251;-71
2022/12/16 02:46:08;;;;;;;;;4.50;4.50;;;;;20.59;34.10;101041.59;5054660;28;45363;-71
2022/12/16 02:48:33;;;;;;;;;4.00;4.00;;;;;20.65;34.24;101050.69;5054577;28;45441;-71
2022/12/16 02:50:59;;;;;;;;;5.25;5.25;;;;;20.66;33.86;101051.53;5053882;28;45943;-71
2022/12/16 02:53:24;;;;;;;;;5.50;5.50;;;;;20.65;34.07;101055.16;5054589;28;45427;-71
2022/12/16 02:56:24;;;;;;;;;5.00;5.00;;;;;20.65;34.21;101055.97;5035269;27;45368;-71
2022/12/16 02:58:55;;;;;;;;;6.75;5.75;;;;;20.65;34.17;101063.06;5034442;28;45365;-71
2022/12/16 03:01:56;;;;;;;;;5.75;5.75;;;;;20.63;34.07;101065.91;5034033;28;45262;-70
2022/12/16 03:04:36;;;;;;;;;3.75;3.75;;;;;20.60;33.78;101064.41;5034190;28;45409;-71
2022/12/16 03:07:06;;;;;;;;;6.00;5.00;;;;;20.63;34.17;101073.84;5033634;28;45343;-71
2022/12/16 03:09:35;;;;;;;;;4.00;4.00;;;;;20.62;34.22;101074.81;5034122;28;45373;-70
2022/12/16 03:12:07;;;;;;;;;4.00;2.75;;;;;20.61;33.97;101073.13;5034183;28;46300;-71
2022/12/16 03:14:37;;;;;;;;;5.25;5.00;;;;;20.59;33.77;101073.31;5034169;28;45339;-71
2022/12/16 03:17:04;;;;;;;;;6.75;6.25;;;;;20.62;34.14;101080.09;5034238;28;45332;-71
2022/12/16 03:19:30;;;;;;;;;5.00;4.25;;;;;20.53;33.90;101078.44;5033810;28;45503;-71
2022/12/16 03:22:06;;;;;;;;;5.75;5.75;;;;;20.51;34.17;101068.84;5033881;28;46365;-71
2022/12/16 03:24:32;;;;;;;;;5.00;3.50;;;;;20.60;33.91;101082.91;5033943;28;45337;-71
2022/12/16 03:27:06;;;;;;;;;6.25;5.75;;;;;20.60;34.13;101095.31;5033978;28;45404;-71
2022/12/16 03:29:45;;;;;;;;;7.00;6.50;;;;;20.59;34.27;101091.00;5034019;28;45304;-71
2022/12/16 03:32:43;;;;;;;;;6.75;6.00;;;;;20.60;34.09;101090.00;5033779;28;47091;-71
2022/12/16 03:35:12;;;;;;;;;5.00;5.00;;;;;20.59;34.14;101096.28;5033636;28;45272;-71
2022/12/16 03:37:38;;;;;;;;;8.25;5.25;;;;;20.58;33.82;101092.81;5033900;28;45362;-71
2022/12/16 03:40:08;;;;;;;;;5.00;5.00;;;;;20.58;34.09;101099.94;5033967;28;45431;-71
2022/12/16 03:42:35;;;;;;;;;5.00;5.00;;;;;20.58;33.75;101099.94;5033686;28;47923;-71
2022/12/16 03:45:01;;;;;;;;;6.00;6.00;;;;;20.58;34.05;101097.28;5033687;28;45423;-71
2022/12/16 03:47:28;;;;;;;;;5.75;5.75;;;;;20.45;34.14;101084.56;5015771;28;45346;-71
2022/12/16 03:49:54;;;;;;;;;3.00;2.75;;;;;20.57;33.91;101104.38;5033516;28;45361;-71
2022/12/16 03:52:20;;;;;;;;;4.50;4.50;;;;;20.56;33.84;101115.94;5033649;28;45986;-71
2022/12/16 03:54:45;;;;;;;;;4.75;4.75;;;;;20.57;33.77;101108.84;5033497;28;45458;-71
2022/12/16 03:57:11;;;;;;;;;6.75;5.00;;;;;20.55;34.06;101111.66;5015830;28;45257;-71
2022/12/16 03:59:37;;;;;;;;;6.00;4.00;;;;;20.54;33.87;101107.34;5015803;28;45326;-70
2022/12/16 04:02:02;;;;;;;;;6.00;4.50;;;;;20.47;34.00;101101.06;5035652;27;45318;-71
2022/12/16 04:04:27;;;;;;;;;5.00;4.75;;;;;20.55;33.60;101114.31;5053355;28;45335;-71
2022/12/16 04:09:36;;;;;;;;;8.25;6.50;;;;;20.48;33.56;101113.31;5053638;28;45316;-71
2022/12/16 04:25:48;;;;;;;;;6.00;6.00;;;;;20.56;33.36;101144.19;5053556;28;45281;-71
2022/12/16 04:28:14;;;;;;;;;7.75;7.25;;;;;20.58;33.38;101150.16;5053475;28;45502;-71
2022/12/16 04:30:39;;;;;;;;;6.00;4.00;;;;;20.56;33.68;101146.81;5053720;28;45384;-71
